sensor_id;sensor_type;location;lat;lon;timestamp;temperature;humidity
23495;DHT22;26107;50.832;2.950;2023-04-03T00:14:28;5.30;99.90
23495;DHT22;26107;50.832;2.950;2023-04-03T00:29:29;5.30;99.90
23495;DHT22;26107;50.832;2.950;2023-04-03T00:59:39;5.30;99.90
23495;DHT22;26107;50.832;2.950;2023-04-03T01:14:43;4.90;99.90
23495;DHT22;26107;50.832;2.950;2023-04-03T01:29:44;4.90;99.90
23495;DHT22;26107;50.832;2.950;2023-04-03T01:44:45;4.60;99.90
23495;DHT22;26107;50.832;2.950;2023-04-03T01:59:46;4.60;99.90
23495;DHT22;26107;50.832;2.950;2023-04-03T02:14:46;4.40;99.90
23495;DHT22;26107;50.832;2.950;2023-04-03T02:29:47;4.30;99.90
23495;DHT22;26107;50.832;2.950;2023-04-03T02:44:48;4.40;99.90
23495;DHT22;26107;50.832;2.950;2023-04-03T02:59:48;4.20;99.90
23495;DHT22;26107;50.832;2.950;2023-04-03T03:14:49;3.50;99.90
23495;DHT22;26107;50.832;2.950;2023-04-03T03:29:49;3.30;99.90
23495;DHT22;26107;50.832;2.950;2023-04-03T03:44:50;3.70;99.90
23495;DHT22;26107;50.832;2.950;2023-04-03T03:59:52;3.90;99.90
23495;DHT22;26107;50.832;2.950;2023-04-03T04:14:53;4.20;99.90
23495;DHT22;26107;50.832;2.950;2023-04-03T04:29:53;4.40;99.90
23495;DHT22;26107;50.832;2.950;2023-04-03T04:44:54;4.40;99.90
23495;DHT22;26107;50.832;2.950;2023-04-03T04:59:54;4.20;99.90
23495;DHT22;26107;50.832;2.950;2023-04-03T05:14:55;4.20;99.90
23495;DHT22;26107;50.832;2.950;2023-04-03T05:29:56;4.10;99.90
23495;DHT22;26107;50.832;2.950;2023-04-03T05:44:57;4.20;99.90
23495;DHT22;26107;50.832;2.950;2023-04-03T05:59:57;4.10;99.90
23495;DHT22;26107;50.832;2.950;2023-04-03T06:14:58;4.40;99.90
23495;DHT22;26107;50.832;2.950;2023-04-03T06:29:58;4.30;99.90
23495;DHT22;26107;50.832;2.950;2023-04-03T06:44:59;4.50;99.90
23495;DHT22;26107;50.832;2.950;2023-04-03T07:00:01;4.70;99.90
23495;DHT22;26107;50.832;2.950;2023-04-03T07:15:01;4.70;99.90
23495;DHT22;26107;50.832;2.950;2023-04-03T07:30:03;5.20;99.90
23495;DHT22;26107;50.832;2.950;2023-04-03T07:45:04;5.50;99.90
23495;DHT22;26107;50.832;2.950;2023-04-03T08:00:05;5.70;99.90
23495;DHT22;26107;50.832;2.950;2023-04-03T08:15:07;6.00;99.90
23495;DHT22;26107;50.832;2.950;2023-04-03T08:30:09;6.30;99.90
23495;DHT22;26107;50.832;2.950;2023-04-03T08:45:28;6.80;99.90
23495;DHT22;26107;50.832;2.950;2023-04-03T09:01:19;7.20;99.90
23495;DHT22;26107;50.832;2.950;2023-04-03T09:31:42;7.80;99.90
23495;DHT22;26107;50.832;2.950;2023-04-03T09:46:43;8.10;99.90
23495;DHT22;26107;50.832;2.950;2023-04-03T10:02:37;8.50;99.90
23495;DHT22;26107;50.832;2.950;2023-04-03T10:17:57;8.70;99.90
23495;DHT22;26107;50.832;2.950;2023-04-03T10:49:14;9.30;99.90
23495;DHT22;26107;50.832;2.950;2023-04-03T11:03:50;9.50;99.90
23495;DHT22;26107;50.832;2.950;2023-04-03T11:19:17;9.80;99.90
23495;DHT22;26107;50.832;2.950;2023-04-03T11:49:59;10.10;99.90
23495;DHT22;26107;50.832;2.950;2023-04-03T12:05:29;10.50;99.90
23495;DHT22;26107;50.832;2.950;2023-04-03T12:36:08;10.90;99.90
23495;DHT22;26107;50.832;2.950;2023-04-03T12:51:15;11.10;99.90
23495;DHT22;26107;50.832;2.950;2023-04-03T13:06:23;11.40;99.90
23495;DHT22;26107;50.832;2.950;2023-04-03T13:21:30;11.60;99.90
23495;DHT22;26107;50.832;2.950;2023-04-03T13:37:11;11.80;99.90
23495;DHT22;26107;50.832;2.950;2023-04-03T13:52:22;12.00;99.90
23495;DHT22;26107;50.832;2.950;2023-04-03T14:07:24;12.20;99.90
23495;DHT22;26107;50.832;2.950;2023-04-03T14:22:28;12.80;99.90
23495;DHT22;26107;50.832;2.950;2023-04-03T14:37:32;12.70;99.90
23495;DHT22;26107;50.832;2.950;2023-04-03T14:52:35;13.10;99.90
23495;DHT22;26107;50.832;2.950;2023-04-03T15:07:38;13.10;99.90
23495;DHT22;26107;50.832;2.950;2023-04-03T15:22:40;12.90;99.90
23495;DHT22;26107;50.832;2.950;2023-04-03T15:37:40;13.10;99.90
23495;DHT22;26107;50.832;2.950;2023-04-03T15:52:41;16.20;96.70
23495;DHT22;26107;50.832;2.950;2023-04-03T16:07:42;23.10;73.00
23495;DHT22;26107;50.832;2.950;2023-04-03T16:22:42;20.10;71.90
23495;DHT22;26107;50.832;2.950;2023-04-03T16:37:43;16.30;77.60
23495;DHT22;26107;50.832;2.950;2023-04-03T16:52:45;15.30;79.20
23495;DHT22;26107;50.832;2.950;2023-04-03T17:07:46;15.50;75.40
23495;DHT22;26107;50.832;2.950;2023-04-03T17:22:47;20.30;66.90
23495;DHT22;26107;50.832;2.950;2023-04-03T17:37:48;23.40;58.20
23495;DHT22;26107;50.832;2.950;2023-04-03T17:52:49;25.20;55.30
23495;DHT22;26107;50.832;2.950;2023-04-03T18:07:51;18.10;60.80
23495;DHT22;26107;50.832;2.950;2023-04-03T18:22:52;14.40;68.30
23495;DHT22;26107;50.832;2.950;2023-04-03T18:37:53;12.70;73.50
23495;DHT22;26107;50.832;2.950;2023-04-03T18:52:53;11.50;76.40
23495;DHT22;26107;50.832;2.950;2023-04-03T19:07:54;11.00;77.70
23495;DHT22;26107;50.832;2.950;2023-04-03T19:22:55;10.40;81.40
23495;DHT22;26107;50.832;2.950;2023-04-03T19:37:56;10.10;81.80
23495;DHT22;26107;50.832;2.950;2023-04-03T19:52:57;10.00;82.20
23495;DHT22;26107;50.832;2.950;2023-04-03T20:07:58;9.60;85.60
23495;DHT22;26107;50.832;2.950;2023-04-03T20:22:59;9.20;89.50
23495;DHT22;26107;50.832;2.950;2023-04-03T20:38:00;8.80;90.90
23495;DHT22;26107;50.832;2.950;2023-04-03T20:53:01;8.70;93.70
23495;DHT22;26107;50.832;2.950;2023-04-03T21:23:40;8.60;95.30
23495;DHT22;26107;50.832;2.950;2023-04-03T21:38:41;8.10;96.50
23495;DHT22;26107;50.832;2.950;2023-04-03T21:53:41;8.10;97.50
23495;DHT22;26107;50.832;2.950;2023-04-03T22:08:44;7.70;99.70
23495;DHT22;26107;50.832;2.950;2023-04-03T22:23:44;7.30;99.90
23495;DHT22;26107;50.832;2.950;2023-04-03T22:38:45;7.30;99.90
23495;DHT22;26107;50.832;2.950;2023-04-03T22:53:46;7.40;99.90
23495;DHT22;26107;50.832;2.950;2023-04-03T23:08:47;7.10;99.90
23495;DHT22;26107;50.832;2.950;2023-04-03T23:23:47;6.80;99.90
23495;DHT22;26107;50.832;2.950;2023-04-03T23:38:48;6.70;99.90
23495;DHT22;26107;50.832;2.950;2023-04-03T23:53:49;6.80;99.90
